Alicia, Arkansas
Current Conditions -  °F | °C
As of 3:56 AM on Monday 20 Oct 2014 (Local Time) from KM19 Reporting Station
Clear Clear  
Wind Chill: 50°   Ceiling: Unl
Heat Index: 50°   Visibility: 10mi
Dew Point: 48°   Wind: 6mph
Humidity: 92%   Direction: 100°E
Pressure: 30.08"   Gusts: NA
Location:  35.89°N, 91.08°W
Report Text: KM19 200856Z AUTO 10005KT 10SM CLR 10/09 A3008 RMK AO2 56007 T01000088 SLP183
Loading
Personal Weather Stations






























Interactive Weather Map
Tropical Storm Tracking
New forecast layout! Learn more

10-Day Weather Forecast

Advertisements
Track Severe Weather on mobile